Time;durP1;ratioP1;P1;durP2;ratioP2;P2;SDS_P1;SDS_P2;PMS_P1;PMS_P2;Temp;Humidity;BMP_temperature;BMP_pressure;BME280_temperature;BME280_humidity;BME280_pressure;Samples;Min_cycle;Max_cycle;Signal;HPM_P1;HPM_P2
2023/02/25 00:00:52;;;;;;;8.60;4.00;;;5.70;86.20;;;;;;4991908;28;20054;-57
2023/02/25 00:03:21;;;;;;;8.73;4.65;;;5.70;86.10;;;;;;5002788;28;20133;-58
2023/02/25 00:05:48;;;;;;;6.55;3.83;;;5.70;86.10;;;;;;4999930;28;20049;-58
2023/02/25 00:08:15;;;;;;;8.45;4.57;;;5.70;86.20;;;;;;4998247;28;20054;-58
2023/02/25 00:10:42;;;;;;;9.40;4.30;;;5.70;85.90;;;;;;5003952;28;20053;-58
2023/02/25 00:13:14;;;;;;;6.78;3.20;;;5.70;85.60;;;;;;5003072;28;20046;-58
2023/02/25 00:15:47;;;;;;;6.15;2.50;;;5.70;85.30;;;;;;5002712;28;20058;-59
2023/02/25 00:18:14;;;;;;;7.68;2.78;;;5.70;85.00;;;;;;5005977;28;20054;-59
2023/02/25 00:20:42;;;;;;;7.88;2.67;;;5.70;84.60;;;;;;5007361;28;20050;-59
2023/02/25 00:23:09;;;;;;;7.10;2.38;;;5.70;84.30;;;;;;5006285;28;20050;-59
2023/02/25 00:25:36;;;;;;;7.93;2.10;;;5.70;84.40;;;;;;5007815;28;20062;-59
2023/02/25 00:28:05;;;;;;;5.15;2.70;;;5.70;84.40;;;;;;5007485;28;20053;-60
2023/02/25 00:30:32;;;;;;;4.75;2.20;;;5.70;84.30;;;;;;5007048;28;20495;-58
2023/02/25 00:32:59;;;;;;;4.45;2.55;;;5.70;84.60;;;;;;5004152;28;20408;-61
2023/02/25 00:35:26;;;;;;;5.95;2.10;;;5.70;84.50;;;;;;5007466;28;20500;-59
2023/02/25 00:37:54;;;;;;;7.03;2.38;;;5.70;84.60;;;;;;5004853;28;20415;-59
2023/02/25 00:40:21;;;;;;;6.72;1.90;;;5.70;84.50;;;;;;5007651;28;20065;-58
2023/02/25 00:42:49;;;;;;;5.80;2.60;;;5.70;84.50;;;;;;4989916;28;20504;-60
2023/02/25 00:45:16;;;;;;;5.20;1.92;;;5.60;84.80;;;;;;5009099;28;20070;-59
2023/02/25 00:47:47;;;;;;;6.05;2.10;;;5.60;84.80;;;;;;5009035;28;20061;-59
2023/02/25 00:50:14;;;;;;;6.45;2.22;;;5.60;84.90;;;;;;4987615;28;20042;-61
2023/02/25 00:52:41;;;;;;;4.63;1.67;;;5.60;85.10;;;;;;5000923;28;20053;-58
2023/02/25 00:55:10;;;;;;;7.03;2.40;;;5.60;85.10;;;;;;4991781;28;20069;-59
2023/02/25 00:57:42;;;;;;;6.53;2.40;;;5.60;85.10;;;;;;5005467;28;20046;-59
2023/02/25 01:00:15;;;;;;;5.60;2.40;;;5.60;85.10;;;;;;4999615;28;20058;-59
2023/02/25 01:02:44;;;;;;;4.85;1.80;;;5.50;85.00;;;;;;4987483;28;20408;-59
2023/02/25 01:05:10;;;;;;;7.57;2.20;;;5.60;85.20;;;;;;4987428;28;20039;-60
2023/02/25 01:07:38;;;;;;;4.20;1.75;;;5.60;85.20;;;;;;4988862;28;20057;-59
2023/02/25 01:10:06;;;;;;;4.30;2.03;;;5.50;85.10;;;;;;4972378;28;20142;-58
2023/02/25 01:12:34;;;;;;;4.18;1.67;;;5.50;85.20;;;;;;4990220;28;20053;-59
2023/02/25 01:15:02;;;;;;;5.72;1.73;;;5.50;85.40;;;;;;4990456;28;20057;-59
2023/02/25 01:17:29;;;;;;;3.78;1.63;;;5.50;85.30;;;;;;4986433;28;20053;-58
2023/02/25 01:19:56;;;;;;;3.30;1.35;;;5.50;85.40;;;;;;4971267;28;20059;-59
2023/02/25 01:22:24;;;;;;;4.50;1.75;;;5.60;85.10;;;;;;4989207;28;20137;-58
2023/02/25 01:24:51;;;;;;;5.20;1.52;;;5.60;85.00;;;;;;4970761;28;20134;-59
2023/02/25 01:27:17;;;;;;;5.63;1.42;;;5.60;85.00;;;;;;4984722;28;20165;-58
2023/02/25 01:29:46;;;;;;;4.50;1.55;;;5.60;84.90;;;;;;4987373;28;20133;-59
2023/02/25 01:32:15;;;;;;;4.70;1.38;;;5.60;84.60;;;;;;4987488;28;20500;-59
2023/02/25 01:34:42;;;;;;;6.40;1.52;;;5.60;84.50;;;;;;4988384;28;20066;-59
2023/02/25 01:37:09;;;;;;;4.53;1.60;;;5.60;84.80;;;;;;4982976;28;20054;-60
2023/02/25 01:39:39;;;;;;;5.40;1.10;;;5.60;84.80;;;;;;4986263;28;20058;-58
2023/02/25 01:42:14;;;;;;;5.57;1.67;;;5.60;84.60;;;;;;4970706;28;20049;-59
2023/02/25 01:45:28;;;;;;;5.60;1.67;;;5.50;84.40;;;;;;4969278;28;20048;-65
2023/02/25 01:48:03;;;;;;;6.85;1.48;;;5.50;84.70;;;;;;4908295;29;20411;-65
2023/02/25 01:50:37;;;;;;;5.75;1.63;;;5.40;84.80;;;;;;4909549;29;20066;-64
2023/02/25 01:53:06;;;;;;;5.85;1.52;;;5.50;84.80;;;;;;4948966;28;20039;-64
2023/02/25 01:55:33;;;;;;;5.47;1.35;;;5.50;84.70;;;;;;4987180;28;20093;-65
2023/02/25 01:58:01;;;;;;;4.97;1.60;;;5.50;84.60;;;;;;4969653;28;20425;-64
2023/02/25 02:00:33;;;;;;;5.75;1.75;;;5.50;84.50;;;;;;4978872;28;20057;-64
2023/02/25 02:03:02;;;;;;;3.83;1.33;;;5.40;84.40;;;;;;5004842;28;20050;-64
2023/02/25 02:05:45;;;;;;;9.45;1.90;;;5.40;84.60;;;;;;5007159;28;20138;-64
2023/02/25 02:08:12;;;;;;;6.18;1.70;;;5.40;84.40;;;;;;5005532;28;20056;-64
2023/02/25 02:10:39;;;;;;;9.23;2.00;;;5.50;84.60;;;;;;5003188;28;20045;-63
2023/02/25 02:13:06;;;;;;;5.03;1.70;;;5.50;84.50;;;;;;5005626;28;20753;-64
2023/02/25 02:15:39;;;;;;;4.10;1.60;;;5.50;84.40;;;;;;5002217;28;20048;-66
2023/02/25 02:18:08;;;;;;;7.07;1.75;;;5.50;84.30;;;;;;5005962;28;20060;-62
2023/02/25 02:20:49;;;;;;;10.45;2.10;;;5.50;84.20;;;;;;5002022;28;20409;-64
2023/02/25 02:23:37;;;;;;;7.82;2.10;;;5.40;84.30;;;;;;5006051;28;20046;-63
2023/02/25 02:26:48;;;;;;;5.70;2.03;;;5.40;84.20;;;;;;5004272;28;20046;-64
2023/02/25 02:29:48;;;;;;;6.60;1.92;;;5.40;84.10;;;;;;4927151;29;20507;-65
2023/02/25 02:32:27;;;;;;;5.85;1.65;;;5.40;84.00;;;;;;4908598;29;20040;-63
2023/02/25 02:35:06;;;;;;;6.72;1.75;;;5.40;83.80;;;;;;4983950;28;20093;-63
2023/02/25 02:37:41;;;;;;;5.15;1.40;;;5.40;83.90;;;;;;4987464;28;20397;-66
2023/02/25 02:40:30;;;;;;;7.07;1.70;;;5.40;83.70;;;;;;5005549;28;20515;-63
2023/02/25 02:43:11;;;;;;;8.35;1.95;;;5.40;83.60;;;;;;4983560;28;20046;-65
2023/02/25 02:45:48;;;;;;;6.50;1.80;;;5.40;83.70;;;;;;4985242;28;20575;-63
2023/02/25 02:48:20;;;;;;;8.00;2.40;;;5.40;83.80;;;;;;4999793;28;20420;-64
2023/02/25 02:50:51;;;;;;;8.90;1.90;;;5.40;83.70;;;;;;5003602;28;20054;-65
2023/02/25 02:53:25;;;;;;;5.03;1.52;;;5.30;83.60;;;;;;5003717;28;20049;-65
2023/02/25 02:55:54;;;;;;;9.85;2.28;;;5.40;83.50;;;;;;5004200;28;20042;-64
2023/02/25 02:58:29;;;;;;;7.72;1.95;;;5.30;83.60;;;;;;4986591;28;20064;-64
2023/02/25 03:01:02;;;;;;;10.18;2.30;;;5.40;83.60;;;;;;5003170;28;20520;-65
2023/02/25 03:03:37;;;;;;;11.05;2.50;;;5.40;83.40;;;;;;5005152;28;20098;-63
2023/02/25 03:06:08;;;;;;;9.38;2.92;;;5.40;83.30;;;;;;5002273;28;20049;-64
2023/02/25 03:08:44;;;;;;;7.78;2.30;;;5.30;83.30;;;;;;5004074;28;20053;-64
2023/02/25 03:11:11;;;;;;;6.55;2.15;;;5.40;83.50;;;;;;4997644;28;20053;-64
2023/02/25 03:13:39;;;;;;;10.05;2.42;;;5.30;83.00;;;;;;4985889;28;20050;-65
2023/02/25 03:16:11;;;;;;;7.43;2.35;;;5.30;83.40;;;;;;4988713;28;20060;-63
2023/02/25 03:18:43;;;;;;;6.15;2.47;;;5.20;83.20;;;;;;5003926;28;20054;-64
2023/02/25 03:21:15;;;;;;;8.35;2.45;;;5.30;83.30;;;;;;5005874;28;20099;-64
2023/02/25 03:23:45;;;;;;;8.32;2.47;;;5.30;83.20;;;;;;4994413;28;20121;-64
2023/02/25 03:26:17;;;;;;;8.63;2.40;;;5.30;83.20;;;;;;5004103;28;20042;-63
2023/02/25 03:28:45;;;;;;;10.43;2.47;;;5.30;83.10;;;;;;5005465;28;20046;-65
2023/02/25 03:31:20;;;;;;;8.50;2.45;;;5.30;83.30;;;;;;5001383;28;20046;-64
2023/02/25 03:33:54;;;;;;;6.38;2.50;;;5.30;83.10;;;;;;5000074;28;20096;-64
2023/02/25 03:36:26;;;;;;;8.85;2.45;;;5.30;83.10;;;;;;5003849;28;20500;-64
2023/02/25 03:38:57;;;;;;;8.85;2.45;;;5.20;83.40;;;;;;4995580;28;20485;-64
2023/02/25 03:41:34;;;;;;;6.80;2.35;;;5.30;83.30;;;;;;4986291;28;20112;-64
2023/02/25 03:44:07;;;;;;;6.38;2.30;;;5.30;83.20;;;;;;5003507;28;20049;-65
2023/02/25 03:46:35;;;;;;;7.68;2.70;;;5.20;83.30;;;;;;4981387;28;20555;-64
2023/02/25 03:49:06;;;;;;;9.70;2.33;;;5.20;83.50;;;;;;4987744;28;20053;-64
2023/02/25 03:51:37;;;;;;;9.85;2.40;;;5.20;83.60;;;;;;5000004;28;20058;-66
2023/02/25 03:54:06;;;;;;;7.90;2.80;;;5.20;83.80;;;;;;4995787;28;20054;-64
2023/02/25 03:56:41;;;;;;;6.68;2.40;;;5.20;83.40;;;;;;4998624;28;20512;-64
2023/02/25 03:59:08;;;;;;;7.63;2.33;;;5.20;83.50;;;;;;5003601;28;20038;-64
2023/02/25 04:01:37;;;;;;;10.93;2.85;;;5.20;83.10;;;;;;5000486;28;20120;-64
2023/02/25 04:04:05;;;;;;;9.07;2.42;;;5.20;83.30;;;;;;4986582;28;20054;-64
2023/02/25 04:06:33;;;;;;;11.93;2.53;;;5.20;83.10;;;;;;4997663;28;20056;-65
2023/02/25 04:09:00;;;;;;;7.07;2.35;;;5.20;83.00;;;;;;4997665;28;20484;-65
2023/02/25 04:11:29;;;;;;;10.30;2.38;;;5.20;83.00;;;;;;5003926;28;20077;-64
2023/02/25 04:13:56;;;;;;;9.38;2.53;;;5.20;83.00;;;;;;5004708;28;20042;-65
2023/02/25 04:16:23;;;;;;;8.48;2.55;;;5.20;82.80;;;;;;5002891;28;20066;-64
2023/02/25 04:18:50;;;;;;;7.57;2.58;;;5.20;82.90;;;;;;4983487;28;20145;-64
2023/02/25 04:21:32;;;;;;;6.05;1.92;;;5.10;82.80;;;;;;5003004;28;20058;-64
2023/02/25 04:23:59;;;;;;;6.95;2.10;;;5.10;83.20;;;;;;4998916;28;20050;-65
2023/02/25 04:26:26;;;;;;;9.25;2.60;;;5.20;83.30;;;;;;5003411;28;20058;-63
2023/02/25 04:28:53;;;;;;;7.95;1.98;;;5.20;83.20;;;;;;5003614;28;20049;-64
2023/02/25 04:31:20;;;;;;;7.45;2.17;;;5.10;83.10;;;;;;5003140;28;20053;-65
2023/02/25 04:33:48;;;;;;;7.53;2.40;;;5.10;83.00;;;;;;5003592;28;20064;-64
2023/02/25 04:36:23;;;;;;;5.60;1.83;;;5.20;83.00;;;;;;5002941;28;20049;-65
2023/02/25 04:38:52;;;;;;;8.57;2.28;;;5.20;83.10;;;;;;5002695;28;20530;-65
2023/02/25 04:41:19;;;;;;;6.85;2.53;;;5.20;82.70;;;;;;4998067;28;20493;-65
2023/02/25 04:43:46;;;;;;;5.10;2.45;;;5.20;82.50;;;;;;5003405;28;20077;-65
2023/02/25 04:46:15;;;;;;;5.60;1.85;;;5.20;82.40;;;;;;5000852;28;20074;-64
2023/02/25 04:48:43;;;;;;;9.85;2.33;;;5.20;82.20;;;;;;5001810;28;20469;-64
2023/02/25 04:51:10;;;;;;;7.43;2.50;;;5.10;82.20;;;;;;5000263;28;20116;-64
2023/02/25 04:53:37;;;;;;;8.27;2.20;;;5.20;82.70;;;;;;4998371;28;20066;-64
2023/02/25 04:56:07;;;;;;;6.32;1.83;;;5.10;82.40;;;;;;5003296;28;20049;-63
2023/02/25 04:58:35;;;;;;;8.27;2.65;;;5.10;82.60;;;;;;5000177;28;20050;-64
2023/02/25 05:01:05;;;;;;;8.25;2.40;;;5.10;82.70;;;;;;5004803;28;20144;-64
2023/02/25 05:03:33;;;;;;;6.10;1.90;;;5.20;82.50;;;;;;5003346;28;20106;-65
2023/02/25 05:06:01;;;;;;;7.05;2.10;;;5.10;82.50;;;;;;4998091;28;20125;-64
2023/02/25 05:08:28;;;;;;;8.25;2.53;;;5.10;82.40;;;;;;4999307;28;20108;-63
2023/02/25 05:10:56;;;;;;;8.85;2.40;;;5.10;82.60;;;;;;5004850;28;20045;-64
2023/02/25 05:16:21;;;;;;;6.15;2.10;;;5.10;82.30;;;;;;4969674;23;20632;-62
2023/02/25 05:18:49;;;;;;;6.47;2.25;;;5.00;82.40;;;;;;5045871;23;20053;-62
2023/02/25 05:21:18;;;;;;;5.38;2.00;;;5.10;82.30;;;;;;5016169;28;20045;-63
2023/02/25 05:23:46;;;;;;;11.48;2.45;;;5.00;82.40;;;;;;5019407;28;20057;-63
2023/02/25 05:31:53;;;;;;;8.77;2.88;;;5.00;82.60;;;;;;4140382;23;20455;-71
2023/02/25 05:34:21;;;;;;;10.00;3.33;;;4.90;82.70;;;;;;4988008;28;20046;-71
2023/02/25 05:36:48;;;;;;;9.70;2.78;;;4.90;82.40;;;;;;5002312;28;20077;-71
2023/02/25 05:39:15;;;;;;;7.38;2.30;;;4.90;82.40;;;;;;5004773;28;20041;-71
2023/02/25 05:41:42;;;;;;;9.30;2.53;;;4.80;82.60;;;;;;5007164;28;20052;-71
2023/02/25 05:44:10;;;;;;;10.85;3.05;;;4.80;82.80;;;;;;5006886;28;20038;-70
2023/02/25 05:46:37;;;;;;;9.30;2.92;;;4.90;82.60;;;;;;5007483;28;20500;-70
2023/02/25 05:49:05;;;;;;;9.98;2.80;;;4.90;82.70;;;;;;5003718;28;20050;-70
2023/02/25 05:51:32;;;;;;;6.68;2.70;;;4.90;82.70;;;;;;5002412;28;20050;-70
2023/02/25 05:53:59;;;;;;;7.38;3.03;;;4.90;82.70;;;;;;5005284;28;20054;-71
2023/02/25 05:56:26;;;;;;;9.38;2.70;;;4.90;82.70;;;;;;5006338;28;20046;-71
2023/02/25 05:58:53;;;;;;;7.32;2.60;;;4.90;82.60;;;;;;5006793;28;20139;-70
2023/02/25 06:01:23;;;;;;;8.68;3.10;;;4.90;82.60;;;;;;5003519;28;20041;-64
2023/02/25 06:03:51;;;;;;;6.82;2.72;;;4.90;82.60;;;;;;5002803;28;20050;-65
2023/02/25 06:06:22;;;;;;;8.68;2.60;;;4.90;82.70;;;;;;5003965;28;20056;-64
2023/02/25 06:08:50;;;;;;;7.50;2.53;;;4.80;82.70;;;;;;5006949;28;20052;-65
2023/02/25 06:11:20;;;;;;;8.88;3.17;;;4.90;82.70;;;;;;5005919;28;20104;-62
2023/02/25 06:13:48;;;;;;;9.75;2.70;;;4.90;82.70;;;;;;4999906;28;20053;-62
2023/02/25 06:16:16;;;;;;;10.43;2.65;;;4.90;82.80;;;;;;5003857;28;20050;-62
2023/02/25 06:18:43;;;;;;;8.45;2.83;;;4.90;82.60;;;;;;5009796;28;20054;-62
2023/02/25 06:21:13;;;;;;;11.02;3.03;;;4.90;82.80;;;;;;5008088;28;20060;-62
2023/02/25 06:23:42;;;;;;;8.63;2.95;;;4.90;82.80;;;;;;5004589;28;20046;-60
2023/02/25 06:26:12;;;;;;;9.80;3.10;;;4.90;83.00;;;;;;5005470;28;20413;-60
2023/02/25 06:28:39;;;;;;;10.25;2.88;;;4.90;82.80;;;;;;5003826;28;20068;-60
2023/02/25 06:31:09;;;;;;;6.75;2.78;;;4.90;83.00;;;;;;4994883;28;20057;-60
2023/02/25 06:33:36;;;;;;;10.65;4.07;;;4.90;83.00;;;;;;4988233;28;20100;-60
2023/02/25 06:36:04;;;;;;;7.90;3.05;;;4.90;83.10;;;;;;4986445;28;20049;-69
2023/02/25 06:38:31;;;;;;;11.02;2.90;;;4.90;83.00;;;;;;4991042;28;20050;-69
2023/02/25 06:41:00;;;;;;;10.32;3.55;;;4.90;83.10;;;;;;4993578;28;20052;-62
2023/02/25 06:43:30;;;;;;;9.18;3.30;;;5.00;83.10;;;;;;4993979;28;20100;-62
2023/02/25 06:45:57;;;;;;;15.23;3.80;;;4.90;83.10;;;;;;4991764;28;20050;-71
2023/02/25 06:48:24;;;;;;;9.43;3.45;;;4.90;83.20;;;;;;4993498;28;20125;-73
2023/02/25 06:50:51;;;;;;;13.77;4.70;;;4.90;83.30;;;;;;4989079;28;20058;-71
2023/02/25 06:53:18;;;;;;;11.38;3.25;;;4.90;83.20;;;;;;4993583;28;20053;-72
2023/02/25 06:55:47;;;;;;;8.20;3.40;;;4.90;83.10;;;;;;4995875;28;20081;-64
2023/02/25 06:58:16;;;;;;;12.63;3.88;;;5.00;83.20;;;;;;4990552;28;20057;-64
2023/02/25 07:00:43;;;;;;;10.93;3.42;;;5.00;83.30;;;;;;4985758;28;20037;-62
2023/02/25 07:03:11;;;;;;;10.95;3.47;;;4.90;83.20;;;;;;4992135;28;20066;-62
2023/02/25 07:05:38;;;;;;;10.25;3.53;;;5.00;83.20;;;;;;4989254;28;20054;-69
2023/02/25 07:08:05;;;;;;;7.90;3.22;;;5.00;83.30;;;;;;4989992;28;20042;-69
2023/02/25 07:10:32;;;;;;;8.13;3.05;;;5.00;83.30;;;;;;4990843;28;20069;-69
2023/02/25 07:12:59;;;;;;;8.00;3.20;;;5.00;83.50;;;;;;4990157;28;20049;-68
2023/02/25 07:15:28;;;;;;;7.97;2.95;;;5.00;83.40;;;;;;4991256;28;20061;-69
2023/02/25 07:17:55;;;;;;;9.05;3.15;;;5.00;83.50;;;;;;4994072;28;20050;-69
2023/02/25 07:20:22;;;;;;;7.47;2.75;;;5.00;83.50;;;;;;4994069;28;20042;-72
2023/02/25 07:22:48;;;;;;;9.60;3.35;;;5.00;83.60;;;;;;4991677;28;20053;-71
2023/02/25 07:25:15;;;;;;;8.05;3.00;;;5.00;83.40;;;;;;4992420;28;20095;-73
2023/02/25 07:27:43;;;;;;;8.00;2.95;;;5.00;83.50;;;;;;4993597;28;20500;-72
2023/02/25 07:30:12;;;;;;;8.00;3.10;;;5.00;83.60;;;;;;4989454;28;20046;-60
2023/02/25 07:32:41;;;;;;;7.43;2.80;;;5.00;83.40;;;;;;4999769;28;20042;-60
2023/02/25 07:35:09;;;;;;;6.30;2.70;;;5.00;83.50;;;;;;5003184;28;22232;-59
2023/02/25 07:37:36;;;;;;;6.82;2.80;;;5.00;83.60;;;;;;5003816;28;20045;-60
2023/02/25 07:40:04;;;;;;;6.90;2.40;;;5.00;83.60;;;;;;5005760;28;20051;-60
2023/02/25 07:42:31;;;;;;;7.68;3.03;;;5.10;83.60;;;;;;5002705;28;20149;-60
2023/02/25 07:44:59;;;;;;;7.85;2.78;;;5.10;83.50;;;;;;4997221;28;20062;-60
2023/02/25 07:47:26;;;;;;;5.07;2.50;;;5.10;83.60;;;;;;5000793;28;20060;-60
2023/02/25 07:49:54;;;;;;;6.60;2.75;;;5.00;83.60;;;;;;5005904;28;20064;-64
2023/02/25 07:52:21;;;;;;;8.30;2.95;;;5.00;83.60;;;;;;5000887;28;20046;-64
2023/02/25 07:54:48;;;;;;;9.75;3.20;;;5.10;83.70;;;;;;5006843;28;20064;-60
2023/02/25 07:57:15;;;;;;;6.88;2.97;;;5.00;83.60;;;;;;5005684;28;20104;-61
2023/02/25 07:59:42;;;;;;;10.50;3.70;;;5.10;83.70;;;;;;5002911;28;20703;-71
2023/02/25 08:02:11;;;;;;;9.85;3.40;;;5.00;83.70;;;;;;5004101;28;20540;-72
2023/02/25 08:04:38;;;;;;;8.90;3.35;;;5.10;83.70;;;;;;5003992;28;20042;-64
2023/02/25 08:07:06;;;;;;;8.63;3.00;;;5.10;83.70;;;;;;4999929;28;20072;-64
2023/02/25 08:09:33;;;;;;;6.70;3.60;;;5.20;83.90;;;;;;5000853;28;20141;-63
2023/02/25 08:12:00;;;;;;;6.85;3.13;;;5.20;83.90;;;;;;4985609;28;20077;-65
2023/02/25 08:14:29;;;;;;;10.40;3.53;;;5.20;83.90;;;;;;5001666;28;20082;-64
2023/02/25 08:16:57;;;;;;;9.80;3.17;;;5.20;84.10;;;;;;5004682;28;20073;-63
2023/02/25 08:19:24;;;;;;;9.30;3.53;;;5.20;84.10;;;;;;5004678;28;20477;-61
2023/02/25 08:21:51;;;;;;;7.20;3.35;;;5.10;84.30;;;;;;5000677;28;20053;-59
2023/02/25 08:24:19;;;;;;;9.20;3.30;;;5.10;84.70;;;;;;5005945;28;20049;-59
2023/02/25 08:26:46;;;;;;;8.32;2.90;;;5.10;84.60;;;;;;5003508;28;20053;-60
2023/02/25 08:29:13;;;;;;;9.10;3.08;;;5.10;84.60;;;;;;5004082;28;20050;-59
2023/02/25 08:31:40;;;;;;;9.10;3.28;;;5.10;84.80;;;;;;4995007;28;20137;-59
2023/02/25 08:34:07;;;;;;;7.90;2.97;;;5.10;85.10;;;;;;4991336;28;20046;-60
2023/02/25 08:36:35;;;;;;;7.22;3.42;;;5.10;85.10;;;;;;4986917;28;20145;-59
2023/02/25 08:39:03;;;;;;;10.55;3.25;;;5.10;85.00;;;;;;4992809;28;20053;-60
2023/02/25 08:41:31;;;;;;;8.73;3.45;;;5.10;85.10;;;;;;4996727;28;20467;-71
2023/02/25 08:43:59;;;;;;;5.93;3.03;;;5.10;85.40;;;;;;4997628;28;20088;-68
2023/02/25 08:46:28;;;;;;;10.63;3.45;;;5.10;85.40;;;;;;4980892;28;20054;-62
2023/02/25 08:48:56;;;;;;;9.77;3.65;;;5.10;85.30;;;;;;4976971;28;20121;-63
2023/02/25 08:51:32;;;;;;;7.57;3.25;;;5.20;85.10;;;;;;4995645;28;20046;-62
2023/02/25 08:54:01;;;;;;;8.52;3.35;;;5.20;85.20;;;;;;4993628;28;20121;-62
2023/02/25 08:56:28;;;;;;;7.88;3.50;;;5.20;85.20;;;;;;4999481;28;20042;-62
2023/02/25 08:58:57;;;;;;;10.18;3.50;;;5.20;85.00;;;;;;4990835;28;20050;-62
2023/02/25 09:01:25;;;;;;;7.18;3.10;;;5.20;85.20;;;;;;4988691;28;20056;-61
2023/02/25 09:03:52;;;;;;;12.48;3.63;;;5.20;85.10;;;;;;4991334;28;20074;-63
2023/02/25 09:06:21;;;;;;;8.23;3.40;;;5.20;85.10;;;;;;4995772;28;20039;-63
2023/02/25 09:08:49;;;;;;;8.65;3.13;;;5.20;85.10;;;;;;4991926;28;20496;-61
2023/02/25 09:11:16;;;;;;;9.07;3.85;;;5.20;85.00;;;;;;4994303;28;20042;-61
2023/02/25 09:13:43;;;;;;;11.20;3.97;;;5.30;85.30;;;;;;4996646;28;20125;-61
2023/02/25 09:16:16;;;;;;;8.20;3.65;;;5.30;85.20;;;;;;4993867;28;20046;-62
2023/02/25 09:18:43;;;;;;;8.68;3.88;;;5.30;85.50;;;;;;4996992;28;20061;-62
2023/02/25 09:21:11;;;;;;;9.80;4.22;;;5.30;85.50;;;;;;4998483;28;20050;-60
2023/02/25 09:23:38;;;;;;;9.23;4.75;;;5.30;85.10;;;;;;4995039;28;20493;-61
2023/02/25 09:26:06;;;;;;;10.52;4.30;;;5.40;84.90;;;;;;4996404;28;20049;-62
2023/02/25 09:28:40;;;;;;;8.77;3.17;;;5.40;85.00;;;;;;4995223;28;20140;-61
2023/02/25 09:31:08;;;;;;;9.38;3.80;;;5.40;84.80;;;;;;4996498;28;21162;-63
2023/02/25 09:33:41;;;;;;;9.43;3.92;;;5.40;84.90;;;;;;5008084;28;20057;-64
2023/02/25 09:36:10;;;;;;;7.82;3.30;;;5.40;84.40;;;;;;5003461;28;20046;-66
2023/02/25 09:38:38;;;;;;;5.95;2.88;;;5.50;84.50;;;;;;5006004;28;20416;-64
2023/02/25 09:41:21;;;;;;;8.88;3.65;;;5.40;84.30;;;;;;5004946;28;20038;-61
2023/02/25 09:43:53;;;;;;;11.07;3.63;;;5.50;84.30;;;;;;5003760;28;20137;-61
2023/02/25 09:46:22;;;;;;;7.38;3.20;;;5.60;84.10;;;;;;5006594;28;20045;-61
2023/02/25 09:48:57;;;;;;;8.68;3.08;;;5.70;84.20;;;;;;5005226;28;20569;-65
2023/02/25 09:51:31;;;;;;;8.90;3.45;;;5.70;84.00;;;;;;5008037;28;20065;-61
2023/02/25 09:54:08;;;;;;;8.55;3.10;;;5.70;83.90;;;;;;5003165;28;20473;-61
2023/02/25 09:56:36;;;;;;;9.00;3.47;;;5.70;83.90;;;;;;5006424;28;20480;-62
2023/02/25 09:59:10;;;;;;;9.23;3.65;;;5.70;84.00;;;;;;5006938;28;20048;-62
2023/02/25 10:01:44;;;;;;;11.85;3.40;;;5.70;84.10;;;;;;5007343;28;20077;-62
2023/02/25 10:04:17;;;;;;;8.85;3.40;;;5.80;84.20;;;;;;5001277;28;20107;-61
2023/02/25 10:06:47;;;;;;;8.70;2.88;;;5.90;84.10;;;;;;5004699;28;20054;-60
2023/02/25 10:09:21;;;;;;;9.50;3.25;;;5.90;84.20;;;;;;5005244;28;20083;-62
2023/02/25 10:11:55;;;;;;;8.63;3.47;;;5.90;83.90;;;;;;5005573;28;20053;-67
2023/02/25 10:14:51;;;;;;;7.70;3.17;;;5.90;84.40;;;;;;5001402;28;20125;-69
2023/02/25 10:17:26;;;;;;;9.65;3.60;;;5.90;84.10;;;;;;4989433;28;20503;-69
2023/02/25 10:20:17;;;;;;;9.18;3.28;;;5.90;84.20;;;;;;5007731;28;20611;-68
2023/02/25 10:22:51;;;;;;;7.13;3.33;;;5.90;84.50;;;;;;5003077;28;20561;-69
2023/02/25 10:25:22;;;;;;;6.47;3.20;;;5.80;84.60;;;;;;5004455;28;20042;-69
2023/02/25 10:27:53;;;;;;;8.10;3.13;;;5.80;84.80;;;;;;5003022;28;20076;-69
2023/02/25 10:30:26;;;;;;;8.48;3.47;;;5.80;84.80;;;;;;5004167;28;20049;-69
2023/02/25 10:32:55;;;;;;;7.50;3.13;;;5.80;84.50;;;;;;4986836;28;20493;-68
2023/02/25 10:35:27;;;;;;;8.73;2.58;;;5.70;84.30;;;;;;4985438;28;20084;-69
2023/02/25 10:37:54;;;;;;;6.97;1.90;;;5.70;84.20;;;;;;4986488;28;20140;-70
2023/02/25 10:40:28;;;;;;;6.20;2.10;;;5.50;84.20;;;;;;4985261;28;20133;-69
2023/02/25 10:43:00;;;;;;;8.25;2.30;;;5.40;84.40;;;;;;4984982;28;20047;-69
2023/02/25 10:45:31;;;;;;;3.88;1.70;;;5.40;84.80;;;;;;4984658;28;20046;-69
2023/02/25 10:48:05;;;;;;;2.83;0.95;;;5.30;84.40;;;;;;4985632;28;20050;-70
2023/02/25 10:50:34;;;;;;;3.80;0.93;;;5.30;84.30;;;;;;4987231;28;20077;-70
2023/02/25 10:53:04;;;;;;;2.42;0.82;;;5.30;84.00;;;;;;4988446;28;20493;-69
2023/02/25 10:55:50;;;;;;;3.95;1.30;;;5.20;83.70;;;;;;4988806;28;20493;-69
2023/02/25 10:58:26;;;;;;;3.03;0.90;;;5.20;83.90;;;;;;4981239;28;20046;-69
2023/02/25 11:00:59;;;;;;;4.25;1.15;;;5.10;84.10;;;;;;4986525;28;20125;-69
2023/02/25 11:03:30;;;;;;;2.80;0.90;;;5.00;84.60;;;;;;4981288;28;20054;-69
2023/02/25 11:06:09;;;;;;;;;;;5.10;85.00;;;;;;4986925;28;20054;-69
2023/02/25 11:08:36;;;;;;;4.05;1.20;;;5.20;85.20;;;;;;4985917;28;19930;-68
2023/02/25 11:11:06;;;;;;;4.57;1.33;;;5.20;85.30;;;;;;4987853;28;20054;-71
2023/02/25 11:13:37;;;;;;;3.42;1.27;;;5.20;85.60;;;;;;4983724;28;20104;-69
2023/02/25 11:16:08;;;;;;;3.50;1.50;;;5.30;85.50;;;;;;4985733;28;20124;-68
2023/02/25 11:18:37;;;;;;;2.63;1.15;;;5.30;85.00;;;;;;4987715;28;20045;-68
2023/02/25 11:21:07;;;;;;;2.05;0.85;;;5.30;85.20;;;;;;4986762;28;20054;-69
2023/02/25 11:23:38;;;;;;;2.35;0.88;;;5.40;85.40;;;;;;4985590;28;20054;-69
2023/02/25 11:26:06;;;;;;;3.95;1.17;;;5.40;85.00;;;;;;4986147;28;20068;-69
2023/02/25 11:28:38;;;;;;;2.67;0.80;;;5.60;85.30;;;;;;4984235;28;20046;-69
2023/02/25 11:31:09;;;;;;;3.33;1.00;;;5.50;85.30;;;;;;4989687;28;20046;-69
2023/02/25 11:33:38;;;;;;;2.58;1.20;;;5.60;85.20;;;;;;5002726;28;20546;-69
2023/02/25 11:36:07;;;;;;;5.20;1.60;;;5.60;85.10;;;;;;5007725;28;20129;-62
2023/02/25 11:38:37;;;;;;;3.83;1.67;;;5.70;85.20;;;;;;5003677;28;20058;-65
2023/02/25 11:41:15;;;;;;;3.28;1.33;;;5.70;85.10;;;;;;5006377;28;20053;-71
2023/02/25 11:43:42;;;;;;;4.28;1.20;;;5.70;84.80;;;;;;5003441;28;20057;-71
2023/02/25 11:46:16;;;;;;;2.60;1.00;;;5.80;83.90;;;;;;5003272;28;20495;-71
2023/02/25 11:48:48;;;;;;;2.50;0.63;;;5.90;83.50;;;;;;5004224;28;20054;-71
2023/02/25 11:51:24;;;;;;;4.10;0.77;;;6.00;83.20;;;;;;4998309;28;20049;-71
2023/02/25 11:54:04;;;;;;;3.45;0.90;;;6.20;83.50;;;;;;5004519;28;20050;-71
2023/02/25 11:56:35;;;;;;;3.53;1.48;;;6.40;84.20;;;;;;5002827;28;20049;-72
2023/02/25 11:59:14;;;;;;;5.18;1.83;;;6.40;84.50;;;;;;5006456;28;20054;-70
2023/02/25 12:01:58;;;;;;;4.50;1.42;;;6.60;84.40;;;;;;5003948;28;20065;-70
2023/02/25 12:04:53;;;;;;;4.00;1.55;;;6.70;83.90;;;;;;5003778;28;20049;-71
2023/02/25 12:07:49;;;;;;;5.25;1.42;;;6.80;83.50;;;;;;4998443;28;20056;-64
2023/02/25 12:10:59;;;;;;;4.72;1.70;;;6.90;84.00;;;;;;5006532;28;20074;-65
2023/02/25 12:14:26;;;;;;;6.05;1.45;;;7.00;84.00;;;;;;4968183;28;20064;-63
2023/02/25 12:17:17;;;;;;;5.10;1.20;;;6.90;81.50;;;;;;4959420;28;20373;-64
2023/02/25 12:20:25;;;;;;;3.85;1.10;;;7.00;81.60;;;;;;5010322;28;20060;-66
2023/02/25 12:23:29;;;;;;;4.30;0.90;;;6.90;81.90;;;;;;5014321;28;20053;-65
2023/02/25 12:26:08;;;;;;;3.10;1.15;;;7.00;81.60;;;;;;5009150;28;20060;-64
2023/02/25 12:29:03;;;;;;;3.30;0.80;;;7.10;81.40;;;;;;5002646;28;20522;-65
2023/02/25 12:32:00;;;;;;;2.13;0.82;;;7.10;80.80;;;;;;5007613;28;20058;-64
2023/02/25 12:34:58;;;;;;;2.58;0.77;;;7.00;80.60;;;;;;5008310;28;20046;-64
2023/02/25 12:37:42;;;;;;;2.72;0.80;;;7.00;80.10;;;;;;5009252;28;20065;-63
2023/02/25 12:40:28;;;;;;;2.65;0.63;;;7.10;80.40;;;;;;5004245;28;20042;-65
2023/02/25 12:43:13;;;;;;;2.35;0.93;;;7.10;81.10;;;;;;5010457;28;20048;-64
2023/02/25 12:45:56;;;;;;;2.78;0.95;;;7.20;81.00;;;;;;5004223;28;20061;-65
2023/02/25 12:48:56;;;;;;;3.70;1.17;;;7.30;80.90;;;;;;5003910;28;20132;-64
2023/02/25 12:51:46;;;;;;;1.43;0.60;;;7.30;81.00;;;;;;4942834;28;20104;-64
2023/02/25 12:54:33;;;;;;;1.88;0.70;;;7.20;80.50;;;;;;5009602;28;20165;-64
2023/02/25 12:57:19;;;;;;;3.03;0.80;;;7.20;80.60;;;;;;5010222;28;20053;-64
2023/02/25 13:00:04;;;;;;;2.63;0.90;;;7.10;80.30;;;;;;5009896;28;20050;-63
2023/02/25 13:03:02;;;;;;;4.72;1.10;;;7.10;80.30;;;;;;5007820;28;20504;-66
2023/02/25 13:05:55;;;;;;;2.95;1.00;;;7.10;80.50;;;;;;5005788;28;20050;-64
2023/02/25 13:08:49;;;;;;;2.70;1.00;;;7.10;80.10;;;;;;5004644;28;20050;-64
2023/02/25 13:11:27;;;;;;;2.67;0.70;;;7.10;80.40;;;;;;5008978;28;20104;-65
2023/02/25 13:14:21;;;;;;;2.00;0.80;;;7.00;80.80;;;;;;5007904;28;20131;-65
2023/02/25 13:17:21;;;;;;;4.80;1.25;;;6.90;80.30;;;;;;5009155;28;20052;-63
2023/02/25 13:20:14;;;;;;;3.15;0.90;;;6.80;79.00;;;;;;5008852;28;20068;-65
2023/02/25 13:22:57;;;;;;;1.50;0.50;;;6.60;76.30;;;;;;4994467;28;20082;-65
2023/02/25 13:25:43;;;;;;;0.98;0.60;;;6.50;77.00;;;;;;5009145;28;20049;-65
2023/02/25 13:28:28;;;;;;;2.97;0.80;;;6.40;77.60;;;;;;5007400;28;20068;-66
2023/02/25 13:31:03;;;;;;;1.33;0.40;;;6.30;79.40;;;;;;5006877;28;20077;-65